ENLE

Ekofisk Oil Platform

Ekofisk, Norway
METAR ENLE 162220Z 14017KT 9999 FEW015 07/05 Q1008 W09/S4
Observed Flight Rules
Dec-16 @ 22:20 UTC (19 minutes ago) Visual Flight Rules
Wind Visibility Clouds
140° at 17 knots 10,000+ meters
  • Few at 1,500' AGL
Temperatures Readings
Current 7°C / 45°F
Dewpoint 5°C / 41°F
Humidity 87%
Altimeter 29.76" Hg
Pressure 1008 hPa
Elevation 3
METAR ENLE 162220Z 14017KT 9999 FEW015 07/05 Q1008 W09/S4
Observed Flight Rules
Dec-16 @ 22:20 UTC
(19 minutes ago)
VFR
Wind Visibility
140° at 17 knots 10,000+ meters
Clouds
  • Few at 1,500' AGL
Temperature Dewpoint
7°C / 45°F 5°C / 41°F
Humidity Altimeter Pressure
87% 29.76" Hg 1008 hPa